createdAt,value
2022-12-26T00:01:13.269Z,9.90
2022-12-26T00:03:41.763Z,9.90
2022-12-26T00:06:16.396Z,9.90
2022-12-26T00:08:45.293Z,9.90
2022-12-26T00:11:14.114Z,9.90
2022-12-26T00:13:43.104Z,9.90
2022-12-26T00:16:13.876Z,9.90
2022-12-26T00:18:43.051Z,9.90
2022-12-26T00:21:13.475Z,9.90
2022-12-26T00:23:43.907Z,9.90
2022-12-26T00:26:14.608Z,9.90
2022-12-26T00:28:43.528Z,9.90
2022-12-26T00:31:13.758Z,9.90
2022-12-26T00:33:42.433Z,9.90
2022-12-26T00:36:13.690Z,9.80
2022-12-26T00:38:44.477Z,9.80
2022-12-26T00:41:14.154Z,9.80
2022-12-26T00:43:42.822Z,9.80
2022-12-26T00:46:11.671Z,9.80
2022-12-26T00:48:40.036Z,9.70
2022-12-26T00:51:08.392Z,9.70
2022-12-26T00:53:36.935Z,9.70
2022-12-26T00:56:06.985Z,9.70
2022-12-26T00:58:35.427Z,9.70
2022-12-26T01:01:08.638Z,9.60
2022-12-26T01:03:37.036Z,9.60
2022-12-26T01:06:06.130Z,9.60
2022-12-26T01:08:34.389Z,9.50
2022-12-26T01:11:07.588Z,9.50
2022-12-26T01:13:36.666Z,9.50
2022-12-26T01:16:06.340Z,9.50
2022-12-26T01:18:35.979Z,9.40
2022-12-26T01:21:06.716Z,9.40
2022-12-26T01:23:35.140Z,9.40
2022-12-26T01:26:17.738Z,9.30
2022-12-26T01:28:49.862Z,9.30
2022-12-26T01:31:18.910Z,9.30
2022-12-26T01:33:47.316Z,9.30
2022-12-26T01:36:16.577Z,9.30
2022-12-26T01:38:45.248Z,9.20
2022-12-26T01:41:21.100Z,9.20
2022-12-26T01:43:55.285Z,9.20
2022-12-26T01:46:28.555Z,9.10
2022-12-26T01:49:00.793Z,9.10
2022-12-26T01:51:34.982Z,9.10
2022-12-26T01:54:40.937Z,9.00
2022-12-26T01:56:55.349Z,9.00
2022-12-26T01:59:27.955Z,8.90
2022-12-26T02:01:56.986Z,8.80
2022-12-26T02:04:52.569Z,8.80
2022-12-26T02:07:21.144Z,8.80
2022-12-26T02:09:49.571Z,8.70
2022-12-26T02:12:37.405Z,8.70
2022-12-26T02:15:12.530Z,8.70
2022-12-26T02:17:41.501Z,8.60
2022-12-26T02:20:19.899Z,8.60
2022-12-26T02:23:28.932Z,8.60
2022-12-26T02:26:26.552Z,8.60
2022-12-26T02:29:24.424Z,8.60
2022-12-26T02:32:01.383Z,8.60
2022-12-26T02:34:37.198Z,8.60
2022-12-26T02:37:23.374Z,8.60
2022-12-26T02:40:09.901Z,8.60
2022-12-26T02:42:48.909Z,8.60
2022-12-26T02:45:43.433Z,8.60
2022-12-26T02:48:18.251Z,8.50
2022-12-26T02:51:17.783Z,8.50
2022-12-26T02:54:11.438Z,8.50
2022-12-26T02:57:01.752Z,8.50
2022-12-26T02:59:57.374Z,8.50
2022-12-26T03:02:48.903Z,8.50
2022-12-26T03:05:51.840Z,8.50
2022-12-26T03:08:43.550Z,8.60
2022-12-26T03:11:29.592Z,8.60
2022-12-26T03:14:08.915Z,8.60
2022-12-26T03:16:54.782Z,8.60
2022-12-26T03:19:27.157Z,8.60
2022-12-26T03:21:58.619Z,8.60
2022-12-26T03:24:48.029Z,8.60
2022-12-26T03:27:15.305Z,8.70
2022-12-26T03:30:01.000Z,8.60
2022-12-26T03:32:29.310Z,8.60
2022-12-26T03:34:57.587Z,8.60
2022-12-26T03:37:50.389Z,8.70
2022-12-26T03:40:51.721Z,8.60
2022-12-26T03:43:46.097Z,8.60
2022-12-26T03:46:45.607Z,8.70
2022-12-26T03:49:39.858Z,8.60
2022-12-26T03:52:34.179Z,8.60
2022-12-26T03:55:29.409Z,8.60
2022-12-26T03:58:24.115Z,8.50
2022-12-26T04:01:13.027Z,8.50
2022-12-26T04:04:01.224Z,8.50
2022-12-26T04:06:52.601Z,8.40
2022-12-26T04:09:43.541Z,8.40
2022-12-26T04:12:36.048Z,8.40
2022-12-26T04:15:25.188Z,8.30
2022-12-26T04:18:16.602Z,8.30
2022-12-26T04:20:50.067Z,8.30
2022-12-26T04:23:41.042Z,8.30
2022-12-26T04:26:31.011Z,8.30
2022-12-26T04:29:18.265Z,8.30
2022-12-26T04:32:10.824Z,8.30
2022-12-26T04:35:03.058Z,8.30
2022-12-26T04:37:50.786Z,8.30
2022-12-26T04:40:42.084Z,8.30
2022-12-26T04:43:49.424Z,8.30
2022-12-26T04:46:20.608Z,8.30
2022-12-26T04:49:13.969Z,8.30
2022-12-26T04:51:42.218Z,8.30
2022-12-26T04:54:10.602Z,8.30
2022-12-26T04:56:39.081Z,8.30
2022-12-26T04:59:07.439Z,8.30
2022-12-26T05:01:54.656Z,8.30
2022-12-26T05:04:40.527Z,8.30
2022-12-26T05:07:33.560Z,8.30
2022-12-26T05:10:01.892Z,8.30
2022-12-26T05:12:30.170Z,8.30
2022-12-26T05:14:58.437Z,8.20
2022-12-26T05:17:45.984Z,8.20
2022-12-26T05:20:46.596Z,8.30
2022-12-26T05:23:38.764Z,8.30
2022-12-26T05:26:24.936Z,8.20
2022-12-26T05:28:57.000Z,8.20
2022-12-26T05:31:29.785Z,8.20
2022-12-26T05:34:07.847Z,8.20
2022-12-26T05:36:39.793Z,8.20
2022-12-26T05:39:09.322Z,8.20
2022-12-26T05:41:38.306Z,8.20
2022-12-26T05:44:06.888Z,8.20
2022-12-26T05:46:35.411Z,8.20
2022-12-26T05:49:06.055Z,8.10
2022-12-26T05:51:34.288Z,8.10
2022-12-26T05:54:02.589Z,8.10
2022-12-26T05:56:31.100Z,8.10
2022-12-26T05:59:01.212Z,8.00
2022-12-26T06:01:31.040Z,8.00
2022-12-26T06:04:01.284Z,8.00
2022-12-26T06:06:31.003Z,8.00
2022-12-26T06:08:59.339Z,8.00
2022-12-26T06:11:28.425Z,8.00
2022-12-26T06:13:57.009Z,7.90
2022-12-26T06:16:25.465Z,7.90
2022-12-26T06:18:55.504Z,7.90
2022-12-26T06:21:24.451Z,7.90
2022-12-26T06:23:54.111Z,7.90
2022-12-26T06:26:22.436Z,7.90
2022-12-26T06:28:50.736Z,7.90
2022-12-26T06:31:21.379Z,7.90
2022-12-26T06:33:51.567Z,7.80
2022-12-26T06:36:22.213Z,7.90
2022-12-26T06:38:51.621Z,7.90
2022-12-26T06:41:23.587Z,7.90
2022-12-26T06:43:52.165Z,7.90
2022-12-26T06:46:22.422Z,7.90
2022-12-26T06:48:50.876Z,7.90
2022-12-26T06:51:21.129Z,8.00
2022-12-26T06:54:02.864Z,8.00
2022-12-26T06:56:34.318Z,8.00
2022-12-26T06:59:04.798Z,8.00
2022-12-26T07:01:36.011Z,8.00
2022-12-26T07:04:04.832Z,8.10
2022-12-26T07:06:34.662Z,8.10
2022-12-26T07:09:05.194Z,8.10
2022-12-26T07:11:36.836Z,8.20
2022-12-26T07:14:05.796Z,8.30
2022-12-26T07:16:35.834Z,8.40
2022-12-26T07:19:04.295Z,8.40
2022-12-26T07:21:39.777Z,8.60
2022-12-26T07:24:14.886Z,8.60
2022-12-26T07:26:45.079Z,8.70
2022-12-26T07:29:16.724Z,8.90
2022-12-26T07:31:45.321Z,8.90
2022-12-26T07:34:13.598Z,9.00
2022-12-26T07:36:42.371Z,9.00
2022-12-26T07:39:10.836Z,9.10
2022-12-26T07:41:56.652Z,9.10
2022-12-26T07:44:26.817Z,9.10
2022-12-26T07:46:55.633Z,9.20
2022-12-26T07:49:24.285Z,9.20
2022-12-26T07:51:53.373Z,9.20
2022-12-26T07:54:21.874Z,9.30
2022-12-26T07:56:50.297Z,9.30
2022-12-26T07:59:19.384Z,9.30
2022-12-26T08:01:49.353Z,9.30
2022-12-26T08:04:20.742Z,9.40
2022-12-26T08:06:49.062Z,9.40
2022-12-26T08:09:17.595Z,9.50
2022-12-26T08:11:46.269Z,9.50
2022-12-26T08:14:16.805Z,9.60
2022-12-26T08:16:51.177Z,9.60
2022-12-26T08:19:22.730Z,9.60
2022-12-26T08:21:50.971Z,9.70
2022-12-26T08:24:19.428Z,9.70
2022-12-26T08:26:47.713Z,9.70
2022-12-26T08:29:16.101Z,9.80
2022-12-26T08:31:44.365Z,9.80
2022-12-26T08:34:39.876Z,9.80
2022-12-26T08:38:15.340Z,9.90
2022-12-26T08:40:45.204Z,10.00
2022-12-26T08:46:03.896Z,10.00
2022-12-26T08:48:32.921Z,10.10
2022-12-26T08:51:02.871Z,10.10
2022-12-26T08:53:35.812Z,10.20
2022-12-26T08:56:07.200Z,10.20
2022-12-26T08:58:35.930Z,10.30
2022-12-26T09:01:09.123Z,10.30
2022-12-26T09:03:37.497Z,10.40
2022-12-26T09:06:06.742Z,10.40
2022-12-26T09:08:36.422Z,10.50
2022-12-26T09:11:07.672Z,10.60
2022-12-26T09:13:36.806Z,10.70
2022-12-26T09:16:10.315Z,10.80
2022-12-26T09:18:39.066Z,10.90
2022-12-26T09:21:09.495Z,11.00
2022-12-26T09:23:38.865Z,11.10
2022-12-26T09:26:11.196Z,11.10
2022-12-26T09:28:39.849Z,11.20
2022-12-26T09:31:11.671Z,11.30
2022-12-26T09:33:40.283Z,11.30
2022-12-26T09:36:14.816Z,11.30
2022-12-26T09:38:43.940Z,11.40
2022-12-26T09:41:38.669Z,11.50
2022-12-26T09:44:16.412Z,11.60
2022-12-26T09:46:54.020Z,11.60
2022-12-26T09:49:25.438Z,11.70
2022-12-26T09:51:57.501Z,11.80
2022-12-26T09:54:32.876Z,11.90
2022-12-26T09:57:09.890Z,11.90
2022-12-26T09:59:48.244Z,12.00
2022-12-26T10:02:22.603Z,12.00
2022-12-26T10:04:51.619Z,12.10
2022-12-26T10:07:26.886Z,12.20
2022-12-26T10:10:06.175Z,12.30
2022-12-26T10:12:56.554Z,12.30
2022-12-26T10:15:45.078Z,12.40
2022-12-26T10:18:34.418Z,12.50
2022-12-26T10:21:19.342Z,12.50
2022-12-26T10:23:50.413Z,12.60
2022-12-26T10:26:22.761Z,12.60
2022-12-26T10:28:58.630Z,12.70
2022-12-26T10:31:31.224Z,12.80
2022-12-26T10:34:09.219Z,12.80
2022-12-26T10:36:43.063Z,12.90
2022-12-26T10:39:23.753Z,12.90
2022-12-26T10:41:54.700Z,12.90
2022-12-26T10:44:27.899Z,13.00
2022-12-26T10:47:19.259Z,13.00
2022-12-26T10:49:50.090Z,13.00
2022-12-26T10:52:21.307Z,13.10
2022-12-26T10:55:28.492Z,13.10
2022-12-26T10:57:45.916Z,13.10
2022-12-26T11:00:21.344Z,13.20
2022-12-26T11:03:05.494Z,13.20
2022-12-26T11:08:29.936Z,13.30
2022-12-26T11:11:07.600Z,13.40
2022-12-26T11:13:41.132Z,13.40
2022-12-26T11:16:11.441Z,13.40
2022-12-26T11:18:48.428Z,13.40
2022-12-26T11:21:24.010Z,13.50
2022-12-26T11:23:53.572Z,13.50
2022-12-26T11:26:49.558Z,13.50
2022-12-26T11:29:26.151Z,13.50
2022-12-26T11:32:01.678Z,13.50
2022-12-26T11:34:34.610Z,13.50
2022-12-26T11:37:03.315Z,13.60
2022-12-26T11:39:34.485Z,13.60
2022-12-26T11:42:09.989Z,13.50
2022-12-26T11:44:42.126Z,13.60
2022-12-26T11:47:14.686Z,13.60
2022-12-26T11:49:50.725Z,13.60
2022-12-26T11:52:37.536Z,13.60
2022-12-26T11:55:31.249Z,13.60
2022-12-26T11:58:02.006Z,13.60
2022-12-26T12:00:30.973Z,13.70
2022-12-26T12:03:00.790Z,13.70
2022-12-26T12:05:42.014Z,13.70
2022-12-26T12:08:36.601Z,13.80
2022-12-26T12:11:23.440Z,13.80
2022-12-26T12:14:15.883Z,13.80
2022-12-26T12:16:57.848Z,13.90
2022-12-26T12:19:39.107Z,13.90
2022-12-26T12:22:24.880Z,13.90
2022-12-26T12:25:09.733Z,14.00
2022-12-26T12:27:43.905Z,14.00
2022-12-26T12:30:19.492Z,14.00
2022-12-26T12:33:11.635Z,14.00
2022-12-26T12:35:54.668Z,14.10
2022-12-26T12:38:35.340Z,14.10
2022-12-26T12:41:35.297Z,14.20
2022-12-26T12:44:09.188Z,14.20
2022-12-26T12:46:47.020Z,14.20
2022-12-26T12:49:28.972Z,14.20
2022-12-26T12:52:06.414Z,14.20
2022-12-26T12:54:59.181Z,14.30
2022-12-26T12:57:34.689Z,14.30
2022-12-26T13:00:15.503Z,14.30
2022-12-26T13:02:48.768Z,14.40
2022-12-26T13:05:23.695Z,14.50
2022-12-26T13:07:58.315Z,14.70
2022-12-26T13:10:30.530Z,14.80
2022-12-26T13:13:00.283Z,14.90
2022-12-26T13:15:36.953Z,15.10
2022-12-26T13:18:11.571Z,15.20
2022-12-26T13:20:43.685Z,15.30
2022-12-26T13:23:38.570Z,15.40
2022-12-26T13:26:20.287Z,15.40
2022-12-26T13:28:59.775Z,15.70
2022-12-26T13:31:35.041Z,16.40
2022-12-26T13:34:04.232Z,17.40
2022-12-26T13:36:45.104Z,19.60
2022-12-26T13:39:38.114Z,20.60
2022-12-26T13:42:44.831Z,20.20
2022-12-26T13:46:01.157Z,20.00
2022-12-26T13:48:56.174Z,19.50
2022-12-26T13:51:48.201Z,19.50
2022-12-26T13:54:18.119Z,19.20
2022-12-26T13:57:12.286Z,19.40
2022-12-26T13:59:45.808Z,19.50
2022-12-26T14:02:58.747Z,19.30
2022-12-26T14:05:31.704Z,19.60
2022-12-26T14:08:07.838Z,19.30
2022-12-26T14:10:44.204Z,18.80
2022-12-26T14:13:34.835Z,18.20
2022-12-26T14:16:09.600Z,17.60
2022-12-26T14:18:46.478Z,17.20
2022-12-26T14:21:37.990Z,16.80
2022-12-26T14:24:19.769Z,16.50
2022-12-26T14:26:57.424Z,16.20
2022-12-26T14:29:32.773Z,15.90
2022-12-26T14:32:16.876Z,15.60
2022-12-26T14:34:58.905Z,15.40
2022-12-26T14:37:36.516Z,15.20
2022-12-26T14:40:19.864Z,15.00
2022-12-26T14:43:14.840Z,14.80
2022-12-26T14:45:51.016Z,14.60
2022-12-26T14:48:52.333Z,14.40
2022-12-26T14:51:33.988Z,14.20
2022-12-26T14:54:37.238Z,14.10
2022-12-26T14:57:44.519Z,13.90
2022-12-26T15:00:25.388Z,13.80
2022-12-26T15:07:23.093Z,13.50
2022-12-26T15:10:34.123Z,13.30
2022-12-26T15:13:43.886Z,13.20
2022-12-26T15:16:24.602Z,13.00
2022-12-26T15:19:42.450Z,13.00
2022-12-26T15:22:52.299Z,12.80
2022-12-26T15:26:05.235Z,12.70
2022-12-26T15:28:55.471Z,12.60
2022-12-26T15:31:46.865Z,12.50
2022-12-26T15:34:56.551Z,12.50
2022-12-26T15:37:39.951Z,12.40
2022-12-26T15:40:15.984Z,12.30
2022-12-26T15:42:57.124Z,12.20
2022-12-26T15:45:34.596Z,12.20
2022-12-26T15:48:12.014Z,12.10
2022-12-26T15:50:53.168Z,12.00
2022-12-26T15:53:33.526Z,12.00
2022-12-26T15:56:36.021Z,12.00
2022-12-26T15:59:30.487Z,11.90
2022-12-26T16:01:59.409Z,11.90
2022-12-26T16:04:34.633Z,11.80
2022-12-26T16:07:24.451Z,11.80
2022-12-26T16:09:54.836Z,11.80
2022-12-26T16:12:28.787Z,11.70
2022-12-26T16:15:16.423Z,11.70
2022-12-26T16:17:46.686Z,11.60
2022-12-26T16:20:42.008Z,11.60
2022-12-26T16:23:15.288Z,11.50
2022-12-26T16:25:50.594Z,11.50
2022-12-26T16:28:27.654Z,11.40
2022-12-26T16:30:57.933Z,11.30
2022-12-26T16:33:27.153Z,11.30
2022-12-26T16:36:00.956Z,11.20
2022-12-26T16:38:32.654Z,11.20
2022-12-26T16:41:01.040Z,11.10
2022-12-26T16:43:30.955Z,11.00
2022-12-26T16:46:02.834Z,11.00
2022-12-26T16:48:33.295Z,11.00
2022-12-26T16:51:05.129Z,10.90
2022-12-26T16:53:46.186Z,10.90
2022-12-26T16:56:27.772Z,10.90
2022-12-26T16:59:04.101Z,10.80
2022-12-26T17:01:34.711Z,10.80
2022-12-26T17:04:06.035Z,10.80
2022-12-26T17:06:39.029Z,10.70
2022-12-26T17:09:10.717Z,10.70
2022-12-26T17:11:51.973Z,10.70
2022-12-26T17:14:24.692Z,10.60
2022-12-26T17:16:59.063Z,10.70
2022-12-26T17:19:30.193Z,10.60
2022-12-26T17:22:31.758Z,10.60
2022-12-26T17:25:23.163Z,10.60
2022-12-26T17:28:25.212Z,10.60
2022-12-26T17:30:54.531Z,10.60
2022-12-26T17:33:41.433Z,10.60
2022-12-26T17:37:19.890Z,10.60
2022-12-26T17:40:21.688Z,10.60
2022-12-26T17:42:52.889Z,10.50
2022-12-26T17:45:24.730Z,10.50
2022-12-26T17:47:53.403Z,10.50
2022-12-26T17:50:22.284Z,10.50
2022-12-26T17:52:50.886Z,10.40
2022-12-26T17:55:22.989Z,10.40
2022-12-26T17:57:51.321Z,10.40
2022-12-26T18:00:23.215Z,10.40
2022-12-26T18:02:51.983Z,10.30
2022-12-26T18:05:21.803Z,10.30
2022-12-26T18:07:53.144Z,10.30
2022-12-26T18:10:23.673Z,10.30
2022-12-26T18:12:55.110Z,10.30
2022-12-26T18:15:25.988Z,10.20
2022-12-26T18:17:54.527Z,10.20
2022-12-26T18:20:24.677Z,10.20
2022-12-26T18:22:53.037Z,10.10
2022-12-26T18:25:23.893Z,10.10
2022-12-26T18:27:53.619Z,10.10
2022-12-26T18:30:25.123Z,10.10
2022-12-26T18:32:54.883Z,10.00
2022-12-26T18:35:23.734Z,10.00
2022-12-26T18:37:54.041Z,10.00
2022-12-26T18:40:33.083Z,9.90
2022-12-26T18:43:01.941Z,9.90
2022-12-26T18:45:32.077Z,9.80
2022-12-26T18:48:01.013Z,9.80
2022-12-26T18:50:30.296Z,9.80
2022-12-26T18:52:58.721Z,9.80
2022-12-26T18:55:28.247Z,9.70
2022-12-26T18:57:56.716Z,9.70
2022-12-26T19:00:27.482Z,9.70
2022-12-26T19:02:57.484Z,9.70
2022-12-26T19:05:27.541Z,9.60
2022-12-26T19:07:56.076Z,9.60
2022-12-26T19:10:27.359Z,9.60
2022-12-26T19:13:02.820Z,9.50
2022-12-26T19:15:33.334Z,9.50
2022-12-26T19:18:03.352Z,9.50
2022-12-26T19:20:31.777Z,9.50
2022-12-26T19:23:00.062Z,9.40
2022-12-26T19:25:29.165Z,9.40
2022-12-26T19:27:58.600Z,9.40
2022-12-26T19:30:33.687Z,9.30
2022-12-26T19:33:08.357Z,9.30
2022-12-26T19:35:36.617Z,9.30
2022-12-26T19:38:05.141Z,9.30
2022-12-26T19:40:33.486Z,9.20
2022-12-26T19:43:01.696Z,9.20
2022-12-26T19:45:30.041Z,9.20
2022-12-26T19:47:58.557Z,9.20
2022-12-26T19:50:28.279Z,9.10
2022-12-26T19:52:56.596Z,9.10
2022-12-26T19:55:30.529Z,9.00
2022-12-26T19:57:58.743Z,9.00
2022-12-26T20:00:27.068Z,9.00
2022-12-26T20:02:55.419Z,9.00
2022-12-26T20:05:23.849Z,9.00
2022-12-26T20:07:53.586Z,9.00
2022-12-26T20:10:21.860Z,8.90
2022-12-26T20:12:50.171Z,8.90
2022-12-26T20:15:18.479Z,8.90
2022-12-26T20:17:48.084Z,8.90
2022-12-26T20:20:37.116Z,8.90
2022-12-26T20:23:06.801Z,8.90
2022-12-26T20:25:36.342Z,8.90
2022-12-26T20:28:04.640Z,8.90
2022-12-26T20:30:32.937Z,8.90
2022-12-26T20:33:01.297Z,8.90
2022-12-26T20:35:32.449Z,8.90
2022-12-26T20:38:00.940Z,8.90
2022-12-26T20:40:30.618Z,8.80
2022-12-26T20:42:58.892Z,8.80
2022-12-26T20:45:27.157Z,8.80
2022-12-26T20:47:55.501Z,8.90
2022-12-26T20:50:24.000Z,8.90
2022-12-26T20:52:52.260Z,8.80
2022-12-26T20:55:20.483Z,8.80
2022-12-26T20:57:50.158Z,8.80
2022-12-26T21:00:18.978Z,8.80
2022-12-26T21:02:47.471Z,8.80
2022-12-26T21:05:15.993Z,8.80
2022-12-26T21:07:45.005Z,8.80
2022-12-26T21:10:14.735Z,8.80
2022-12-26T21:12:43.102Z,8.80
2022-12-26T21:15:12.867Z,8.80
2022-12-26T21:17:41.158Z,8.80
2022-12-26T21:20:10.297Z,8.70
2022-12-26T21:22:38.755Z,8.70
2022-12-26T21:25:07.921Z,8.70
2022-12-26T21:27:39.170Z,8.70
2022-12-26T21:30:10.551Z,8.60
2022-12-26T21:32:40.212Z,8.60
2022-12-26T21:35:08.867Z,8.60
2022-12-26T21:37:52.625Z,8.60
2022-12-26T21:40:23.100Z,8.50
2022-12-26T21:42:51.394Z,8.50
2022-12-26T21:45:19.797Z,8.50
2022-12-26T21:47:49.469Z,8.40
2022-12-26T21:50:17.858Z,8.40
2022-12-26T21:52:46.098Z,8.40
2022-12-26T21:55:28.185Z,8.40
2022-12-26T21:57:57.233Z,8.30
2022-12-26T22:00:25.743Z,8.40
2022-12-26T22:03:12.523Z,8.30
2022-12-26T22:05:42.629Z,8.30
2022-12-26T22:08:12.387Z,8.30
2022-12-26T22:11:01.122Z,8.30
2022-12-26T22:13:32.227Z,8.30
2022-12-26T22:16:07.590Z,8.30
2022-12-26T22:18:39.857Z,8.30
2022-12-26T22:21:10.560Z,8.20
2022-12-26T22:23:39.598Z,8.20
2022-12-26T22:26:09.071Z,8.20
2022-12-26T22:28:37.411Z,8.20
2022-12-26T22:31:08.376Z,8.20
2022-12-26T22:33:38.048Z,8.20
2022-12-26T22:36:07.711Z,8.20
2022-12-26T22:38:36.491Z,8.20
2022-12-26T22:41:08.229Z,8.10
2022-12-26T22:43:37.228Z,8.10
2022-12-26T22:46:05.697Z,8.10
2022-12-26T22:48:34.102Z,8.10
2022-12-26T22:51:03.877Z,8.10
2022-12-26T22:53:32.586Z,8.10
2022-12-26T22:56:02.775Z,8.00
2022-12-26T22:58:32.789Z,8.00
2022-12-26T23:01:01.359Z,8.00
2022-12-26T23:03:30.552Z,8.00
2022-12-26T23:05:59.400Z,8.00
2022-12-26T23:08:29.827Z,8.00
2022-12-26T23:10:59.658Z,8.00
2022-12-26T23:13:28.394Z,7.90
2022-12-26T23:16:00.641Z,7.90
2022-12-26T23:18:53.631Z,7.90
2022-12-26T23:21:43.143Z,7.90
2022-12-26T23:24:16.802Z,7.80
2022-12-26T23:26:48.149Z,7.80
2022-12-26T23:29:35.823Z,7.80
2022-12-26T23:32:04.448Z,7.80
2022-12-26T23:34:32.792Z,7.80
2022-12-26T23:37:01.180Z,7.70
2022-12-26T23:39:31.128Z,7.70
2022-12-26T23:41:59.410Z,7.70
2022-12-26T23:44:27.683Z,7.70
2022-12-26T23:46:56.021Z,7.60
2022-12-26T23:49:24.305Z,7.60
2022-12-26T23:51:52.578Z,7.60
2022-12-26T23:54:20.872Z,7.50
2022-12-26T23:56:50.551Z,7.50
2022-12-26T23:59:19.102Z,7.40
